createdAt,value
2022-12-19T00:00:42.751Z,30.90
2022-12-19T00:01:42.795Z,30.30
2022-12-19T00:02:42.861Z,28.90
2022-12-19T00:03:42.732Z,30.20
2022-12-19T00:04:42.706Z,30.20
2022-12-19T00:05:42.778Z,29.20
2022-12-19T00:06:43.951Z,31.10
2022-12-19T00:07:42.718Z,32.90
2022-12-19T00:08:42.698Z,33.00
2022-12-19T00:09:42.674Z,31.40
2022-12-19T00:10:42.670Z,30.20
2022-12-19T00:11:42.662Z,31.30
2022-12-19T00:12:42.670Z,30.30
2022-12-19T00:13:42.643Z,29.90
2022-12-19T00:14:42.635Z,29.20
2022-12-19T00:15:42.628Z,29.20
2022-12-19T00:16:42.670Z,28.70
2022-12-19T00:17:42.631Z,29.40
2022-12-19T00:18:42.635Z,29.50
2022-12-19T00:19:42.633Z,28.90
2022-12-19T00:20:42.612Z,28.30
2022-12-19T00:21:42.683Z,30.80
2022-12-19T00:22:42.598Z,30.20
2022-12-19T00:23:42.582Z,31.10
2022-12-19T00:24:42.573Z,32.30
2022-12-19T00:25:42.631Z,30.50
2022-12-19T00:26:42.560Z,31.50
2022-12-19T00:27:42.568Z,29.40
2022-12-19T00:28:42.557Z,30.90
2022-12-19T00:29:42.543Z,29.70
2022-12-19T00:30:42.575Z,30.30
2022-12-19T00:31:42.582Z,29.60
2022-12-19T00:32:42.531Z,29.20
2022-12-19T00:33:43.532Z,29.90
2022-12-19T00:34:42.512Z,29.90
2022-12-19T00:35:42.533Z,28.90
2022-12-19T00:36:42.498Z,30.20
2022-12-19T00:37:49.323Z,29.20
2022-12-19T00:38:43.499Z,27.80
2022-12-19T00:39:42.488Z,28.60
2022-12-19T00:40:42.483Z,27.60
2022-12-19T00:41:42.721Z,26.70
2022-12-19T00:42:42.461Z,26.80
2022-12-19T00:43:42.462Z,26.60
2022-12-19T00:44:42.444Z,26.20
2022-12-19T00:45:42.514Z,29.80
2022-12-19T00:46:42.476Z,29.90
2022-12-19T00:47:42.442Z,31.50
2022-12-19T00:48:42.428Z,30.80
2022-12-19T00:49:42.442Z,29.60
2022-12-19T00:50:42.425Z,30.70
2022-12-19T00:51:42.414Z,30.50
2022-12-19T00:52:42.419Z,29.30
2022-12-19T00:53:42.466Z,31.20
2022-12-19T00:54:42.439Z,30.90
2022-12-19T00:55:42.382Z,30.30
2022-12-19T00:56:42.385Z,30.00
2022-12-19T00:57:42.362Z,31.20
2022-12-19T00:58:46.765Z,30.00
2022-12-19T00:59:43.359Z,29.90
2022-12-19T01:00:42.425Z,29.90
2022-12-19T01:01:42.482Z,29.50
2022-12-19T01:02:42.495Z,30.00
2022-12-19T01:03:58.059Z,30.30
2022-12-19T01:04:43.341Z,30.90
2022-12-19T01:05:42.326Z,31.30
2022-12-19T01:06:42.310Z,32.20
2022-12-19T01:07:42.311Z,30.20
2022-12-19T01:08:42.298Z,29.50
2022-12-19T01:09:42.368Z,30.30
2022-12-19T01:10:42.295Z,28.20
2022-12-19T01:11:42.298Z,27.40
2022-12-19T01:12:42.264Z,28.20
2022-12-19T01:13:42.253Z,30.70
2022-12-19T01:14:42.266Z,30.60
2022-12-19T01:15:42.248Z,29.70
2022-12-19T01:16:42.339Z,30.70
2022-12-19T01:17:44.418Z,30.50
2022-12-19T01:18:42.244Z,29.90
2022-12-19T01:19:44.613Z,30.40
2022-12-19T01:20:42.233Z,29.30
2022-12-19T01:21:42.212Z,30.00
2022-12-19T01:22:42.205Z,29.30
2022-12-19T01:23:42.208Z,29.90
2022-12-19T01:24:42.199Z,29.60
2022-12-19T01:25:45.894Z,28.80
2022-12-19T01:26:42.167Z,29.10
2022-12-19T01:27:42.182Z,29.80
2022-12-19T01:28:42.173Z,29.50
2022-12-19T01:29:52.464Z,30.50
2022-12-19T01:30:42.144Z,28.90
2022-12-19T01:31:42.202Z,31.20
2022-12-19T01:32:42.133Z,31.80
2022-12-19T01:33:42.122Z,32.40
2022-12-19T01:34:42.119Z,32.00
2022-12-19T01:35:42.122Z,31.30
2022-12-19T01:36:42.111Z,32.00
2022-12-19T01:37:42.122Z,31.20
2022-12-19T01:38:42.096Z,30.70
2022-12-19T01:39:42.090Z,32.50
2022-12-19T01:40:42.102Z,30.70
2022-12-19T01:41:42.151Z,30.60
2022-12-19T01:42:42.063Z,32.60
2022-12-19T01:43:42.063Z,30.80
2022-12-19T01:44:42.060Z,32.10
2022-12-19T01:45:45.839Z,30.90
2022-12-19T01:46:42.127Z,32.50
2022-12-19T01:47:42.059Z,32.20
2022-12-19T01:48:42.030Z,31.50
2022-12-19T01:49:42.031Z,30.00
2022-12-19T01:50:51.463Z,29.70
2022-12-19T01:51:42.006Z,31.20
2022-12-19T01:52:42.009Z,32.20
2022-12-19T01:53:49.030Z,31.40
2022-12-19T01:54:42.998Z,30.90
2022-12-19T01:55:41.995Z,32.10
2022-12-19T01:56:41.967Z,31.00
2022-12-19T01:57:42.012Z,29.50
2022-12-19T01:58:41.934Z,29.80
2022-12-19T01:59:41.929Z,29.00
2022-12-19T02:00:41.946Z,27.90
2022-12-19T02:01:51.172Z,26.80
2022-12-19T02:02:43.009Z,27.20
2022-12-19T02:03:41.906Z,29.00
2022-12-19T02:04:41.901Z,30.70
2022-12-19T02:05:41.887Z,33.00
2022-12-19T02:06:41.900Z,30.20
2022-12-19T02:07:41.902Z,30.30
2022-12-19T02:08:41.919Z,28.50
2022-12-19T02:09:41.864Z,27.70
2022-12-19T02:10:41.858Z,30.80
2022-12-19T02:11:41.848Z,31.00
2022-12-19T02:12:41.842Z,29.80
2022-12-19T02:13:41.861Z,30.30
2022-12-19T02:14:41.832Z,30.50
2022-12-19T02:15:41.840Z,30.50
2022-12-19T02:16:41.820Z,29.10
2022-12-19T02:17:41.815Z,29.70
2022-12-19T02:18:41.827Z,28.90
2022-12-19T02:19:41.826Z,30.80
2022-12-19T02:20:41.792Z,30.30
2022-12-19T02:21:41.802Z,30.60
2022-12-19T02:22:41.779Z,31.40
2022-12-19T02:23:41.786Z,30.30
2022-12-19T02:24:41.770Z,31.30
2022-12-19T02:25:41.785Z,30.40
2022-12-19T02:26:41.763Z,30.10
2022-12-19T02:27:41.755Z,30.10
2022-12-19T02:28:41.751Z,30.70
2022-12-19T02:29:41.826Z,30.80
2022-12-19T02:30:41.736Z,30.30
2022-12-19T02:31:41.797Z,28.30
2022-12-19T02:32:41.727Z,28.10
2022-12-19T02:33:41.715Z,26.80
2022-12-19T02:34:44.575Z,27.70
2022-12-19T02:35:41.718Z,26.90
2022-12-19T02:36:43.458Z,26.60
2022-12-19T02:37:41.705Z,25.70
2022-12-19T02:38:41.696Z,25.50
2022-12-19T02:39:41.708Z,26.90
2022-12-19T02:40:41.689Z,25.60
2022-12-19T02:41:41.682Z,25.60
2022-12-19T02:42:41.662Z,27.60
2022-12-19T02:43:41.676Z,26.90
2022-12-19T02:44:41.652Z,26.00
2022-12-19T02:45:41.820Z,26.30
2022-12-19T02:46:41.661Z,26.80
2022-12-19T02:47:41.651Z,25.70
2022-12-19T02:48:41.637Z,26.00
2022-12-19T02:49:41.622Z,25.90
2022-12-19T02:50:41.624Z,25.40
2022-12-19T02:51:41.627Z,25.30
2022-12-19T02:52:41.607Z,26.10
2022-12-19T02:53:41.604Z,25.60
2022-12-19T02:54:44.962Z,26.10
2022-12-19T02:55:41.614Z,25.40
2022-12-19T02:56:41.598Z,25.00
2022-12-19T02:57:41.584Z,26.50
2022-12-19T02:58:41.617Z,27.70
2022-12-19T02:59:41.594Z,26.30
2022-12-19T03:00:41.564Z,26.10
2022-12-19T03:01:41.838Z,26.80
2022-12-19T03:02:41.731Z,25.30
2022-12-19T03:03:41.604Z,27.10
2022-12-19T03:04:41.554Z,25.70
2022-12-19T03:05:41.534Z,27.00
2022-12-19T03:06:41.539Z,26.60
2022-12-19T03:07:41.530Z,27.10
2022-12-19T03:08:41.514Z,27.10
2022-12-19T03:09:41.538Z,27.60
2022-12-19T03:10:41.510Z,26.70
2022-12-19T03:11:41.527Z,28.10
2022-12-19T03:12:41.506Z,27.00
2022-12-19T03:13:41.494Z,27.50
2022-12-19T03:14:41.487Z,27.10
2022-12-19T03:15:41.478Z,27.20
2022-12-19T03:16:41.571Z,27.30
2022-12-19T03:17:41.549Z,28.70
2022-12-19T03:18:41.454Z,27.90
2022-12-19T03:19:41.461Z,27.30
2022-12-19T03:20:41.448Z,26.00
2022-12-19T03:21:41.454Z,27.50
2022-12-19T03:22:41.446Z,26.20
2022-12-19T03:23:41.430Z,26.30
2022-12-19T03:24:41.430Z,26.40
2022-12-19T03:25:41.419Z,25.70
2022-12-19T03:26:41.404Z,25.00
2022-12-19T03:27:41.408Z,25.40
2022-12-19T03:28:41.414Z,24.10
2022-12-19T03:29:41.378Z,24.70
2022-12-19T03:30:41.443Z,26.10
2022-12-19T03:31:41.388Z,26.10
2022-12-19T03:32:41.371Z,26.30
2022-12-19T03:33:41.440Z,26.30
2022-12-19T03:34:41.382Z,25.40
2022-12-19T03:35:41.349Z,27.50
2022-12-19T03:36:41.347Z,26.60
2022-12-19T03:37:41.337Z,25.90
2022-12-19T03:38:41.346Z,26.60
2022-12-19T03:39:41.334Z,26.30
2022-12-19T03:40:41.336Z,25.40
2022-12-19T03:41:41.316Z,25.80
2022-12-19T03:42:41.312Z,25.70
2022-12-19T03:43:41.299Z,26.10
2022-12-19T03:44:41.289Z,25.30
2022-12-19T03:45:41.356Z,26.50
2022-12-19T03:46:41.285Z,24.50
2022-12-19T03:47:41.292Z,25.40
2022-12-19T03:48:41.263Z,25.70
2022-12-19T03:49:41.346Z,25.40
2022-12-19T03:50:41.280Z,25.50
2022-12-19T03:51:41.250Z,25.70
2022-12-19T03:52:41.253Z,25.60
2022-12-19T03:53:41.231Z,26.00
2022-12-19T03:54:41.256Z,25.70
2022-12-19T03:55:41.236Z,25.90
2022-12-19T03:56:41.217Z,25.60
2022-12-19T03:57:41.250Z,25.20
2022-12-19T03:58:41.209Z,25.10
2022-12-19T03:59:41.193Z,25.10
2022-12-19T04:00:41.189Z,26.10
2022-12-19T04:01:41.277Z,26.30
2022-12-19T04:02:41.200Z,24.80
2022-12-19T04:03:41.261Z,26.00
2022-12-19T04:04:41.175Z,26.60
2022-12-19T04:05:41.248Z,26.10
2022-12-19T04:06:41.160Z,25.30
2022-12-19T04:07:41.189Z,25.50
2022-12-19T04:08:41.161Z,26.10
2022-12-19T04:09:41.145Z,26.60
2022-12-19T04:10:41.127Z,26.00
2022-12-19T04:11:41.132Z,25.20
2022-12-19T04:12:41.153Z,26.70
2022-12-19T04:13:41.109Z,26.20
2022-12-19T04:14:41.121Z,26.40
2022-12-19T04:15:41.132Z,26.10
2022-12-19T04:16:41.083Z,26.70
2022-12-19T04:17:41.086Z,25.70
2022-12-19T04:18:41.100Z,26.40
2022-12-19T04:19:42.673Z,25.60
2022-12-19T04:20:41.072Z,26.10
2022-12-19T04:21:41.145Z,27.40
2022-12-19T04:22:41.060Z,25.80
2022-12-19T04:23:41.053Z,26.70
2022-12-19T04:24:41.039Z,26.00
2022-12-19T04:25:41.065Z,25.90
2022-12-19T04:26:41.031Z,26.10
2022-12-19T04:27:41.029Z,25.80
2022-12-19T04:28:41.014Z,26.30
2022-12-19T04:29:41.007Z,25.10
2022-12-19T04:30:41.021Z,26.80
2022-12-19T04:31:41.007Z,26.20
2022-12-19T04:32:40.995Z,26.20
2022-12-19T04:33:40.981Z,26.50
2022-12-19T04:34:42.974Z,26.20
2022-12-19T04:35:40.971Z,26.30
2022-12-19T04:36:40.981Z,26.20
2022-12-19T04:37:41.024Z,26.90
2022-12-19T04:38:40.956Z,26.30
2022-12-19T04:39:40.945Z,26.50
2022-12-19T04:40:41.828Z,26.00
2022-12-19T04:41:40.939Z,26.20
2022-12-19T04:42:40.933Z,26.80
2022-12-19T04:43:40.911Z,28.40
2022-12-19T04:44:40.904Z,25.40
2022-12-19T04:45:40.898Z,26.00
2022-12-19T04:46:41.001Z,25.90
2022-12-19T04:47:40.885Z,25.70
2022-12-19T04:48:40.903Z,25.80
2022-12-19T04:49:40.877Z,25.10
2022-12-19T04:50:40.884Z,24.80
2022-12-19T04:51:40.857Z,25.50
2022-12-19T04:52:40.855Z,24.80
2022-12-19T04:53:40.933Z,24.30
2022-12-19T04:54:40.838Z,25.20
2022-12-19T04:55:40.837Z,25.10
2022-12-19T04:56:40.846Z,24.50
2022-12-19T04:57:40.821Z,26.20
2022-12-19T04:58:40.837Z,25.80
2022-12-19T04:59:40.808Z,26.00
2022-12-19T05:00:40.794Z,24.90
2022-12-19T05:01:40.948Z,25.70
2022-12-19T05:02:40.960Z,25.80
2022-12-19T05:03:40.875Z,24.50
2022-12-19T05:04:40.798Z,25.80
2022-12-19T05:05:40.788Z,24.80
2022-12-19T05:06:40.768Z,24.40
2022-12-19T05:07:40.753Z,24.80
2022-12-19T05:08:40.760Z,25.00
2022-12-19T05:09:40.823Z,24.30
2022-12-19T05:10:40.732Z,25.90
2022-12-19T05:11:40.731Z,25.50
2022-12-19T05:12:40.721Z,23.70
2022-12-19T05:13:40.715Z,24.80
2022-12-19T05:14:40.743Z,25.10
2022-12-19T05:15:40.744Z,26.20
2022-12-19T05:16:40.687Z,25.60
2022-12-19T05:17:40.686Z,24.30
2022-12-19T05:18:40.684Z,25.50
2022-12-19T05:19:40.700Z,24.10
2022-12-19T05:20:40.664Z,24.90
2022-12-19T05:21:40.682Z,24.50
2022-12-19T05:22:40.662Z,24.50
2022-12-19T05:23:40.658Z,25.10
2022-12-19T05:24:40.648Z,25.50
2022-12-19T05:25:40.741Z,25.20
2022-12-19T05:26:40.632Z,24.80
2022-12-19T05:27:40.625Z,24.90
2022-12-19T05:28:40.611Z,25.20
2022-12-19T05:29:40.630Z,25.70
2022-12-19T05:30:40.609Z,25.80
2022-12-19T05:31:40.681Z,24.70
2022-12-19T05:32:40.583Z,24.90
2022-12-19T05:33:40.595Z,24.60
2022-12-19T05:34:40.572Z,25.20
2022-12-19T05:35:40.588Z,25.00
2022-12-19T05:36:40.567Z,28.00
2022-12-19T05:37:40.566Z,27.10
2022-12-19T05:38:40.555Z,30.00
2022-12-19T05:39:40.546Z,27.60
2022-12-19T05:40:40.543Z,29.60
2022-12-19T05:41:40.631Z,27.80
2022-12-19T05:42:40.520Z,28.40
2022-12-19T05:43:40.514Z,27.50
2022-12-19T05:44:40.532Z,27.90
2022-12-19T05:45:40.505Z,27.90
2022-12-19T05:46:40.525Z,27.40
2022-12-19T05:47:40.497Z,26.80
2022-12-19T05:48:40.487Z,27.50
2022-12-19T05:49:40.479Z,29.90
2022-12-19T05:50:40.497Z,29.50
2022-12-19T05:51:40.466Z,28.40
2022-12-19T05:52:40.453Z,27.20
2022-12-19T05:53:40.458Z,25.60
2022-12-19T05:54:40.449Z,27.30
2022-12-19T05:55:40.453Z,28.50
2022-12-19T05:56:40.456Z,31.30
2022-12-19T05:57:40.538Z,30.50
2022-12-19T05:58:40.421Z,29.40
2022-12-19T05:59:40.412Z,29.50
2022-12-19T06:00:40.412Z,29.30
2022-12-19T06:01:40.474Z,29.20
2022-12-19T06:02:40.570Z,30.10
2022-12-19T06:03:40.438Z,30.40
2022-12-19T06:04:40.408Z,30.70
2022-12-19T06:05:40.393Z,29.00
2022-12-19T06:06:40.369Z,28.70
2022-12-19T06:07:40.372Z,30.30
2022-12-19T06:08:40.364Z,30.10
2022-12-19T06:09:40.363Z,30.20
2022-12-19T06:10:40.365Z,30.40
2022-12-19T06:11:40.344Z,31.10
2022-12-19T06:12:40.340Z,34.40
2022-12-19T06:13:40.416Z,31.80
2022-12-19T06:14:40.329Z,30.70
2022-12-19T06:15:40.315Z,30.60
2022-12-19T06:16:40.340Z,31.60
2022-12-19T06:17:40.325Z,30.50
2022-12-19T06:18:44.302Z,27.90
2022-12-19T06:19:40.296Z,26.80
2022-12-19T06:20:40.301Z,27.80
2022-12-19T06:21:47.959Z,27.30
2022-12-19T06:22:40.272Z,26.90
2022-12-19T06:23:40.298Z,26.50
2022-12-19T06:24:40.255Z,28.40
2022-12-19T06:25:40.255Z,28.50
2022-12-19T06:26:40.239Z,28.00
2022-12-19T06:27:40.242Z,28.90
2022-12-19T06:28:40.259Z,27.10
2022-12-19T06:29:40.326Z,28.80
2022-12-19T06:30:40.224Z,28.20
2022-12-19T06:31:40.284Z,29.00
2022-12-19T06:32:40.208Z,29.30
2022-12-19T06:33:40.212Z,29.00
2022-12-19T06:35:03.152Z,30.20
2022-12-19T06:35:41.190Z,26.80
2022-12-19T06:36:40.174Z,27.60
2022-12-19T06:37:40.176Z,27.20
2022-12-19T06:38:40.162Z,26.50
2022-12-19T06:39:40.185Z,27.60
2022-12-19T06:40:40.148Z,29.20
2022-12-19T06:41:40.148Z,29.30
2022-12-19T06:42:40.126Z,27.70
2022-12-19T06:43:40.122Z,27.40
2022-12-19T06:44:40.119Z,28.00
2022-12-19T06:45:40.269Z,26.90
2022-12-19T06:46:40.096Z,27.30
2022-12-19T06:47:40.106Z,27.90
2022-12-19T06:48:40.089Z,26.70
2022-12-19T06:49:40.092Z,26.70
2022-12-19T06:50:40.090Z,28.30
2022-12-19T06:51:40.112Z,27.60
2022-12-19T06:52:40.068Z,26.90
2022-12-19T06:53:40.065Z,28.60
2022-12-19T06:54:40.061Z,29.00
2022-12-19T06:55:40.055Z,28.30
2022-12-19T06:56:40.068Z,27.60
2022-12-19T06:57:40.061Z,28.40
2022-12-19T06:58:40.029Z,29.20
2022-12-19T06:59:40.024Z,28.70
2022-12-19T07:00:40.054Z,29.40
2022-12-19T07:01:40.558Z,31.80
2022-12-19T07:02:40.138Z,30.00
2022-12-19T07:03:40.014Z,28.40
2022-12-19T07:04:40.011Z,29.10
2022-12-19T07:05:39.997Z,29.60
2022-12-19T07:06:43.476Z,30.20
2022-12-19T07:07:41.009Z,29.60
2022-12-19T07:08:39.972Z,29.30
2022-12-19T07:09:39.988Z,30.20
2022-12-19T07:10:40.013Z,30.90
2022-12-19T07:11:39.960Z,33.20
2022-12-19T07:12:39.944Z,31.60
2022-12-19T07:13:39.949Z,29.10
2022-12-19T07:14:39.945Z,29.40
2022-12-19T07:15:39.959Z,29.30
2022-12-19T07:16:39.991Z,29.30
2022-12-19T07:17:40.056Z,30.30
2022-12-19T07:18:39.907Z,29.60
2022-12-19T07:19:39.899Z,30.00
2022-12-19T07:20:44.914Z,29.50
2022-12-19T07:21:39.904Z,28.80
2022-12-19T07:22:39.877Z,29.80
2022-12-19T07:23:39.873Z,29.10
2022-12-19T07:24:39.869Z,29.90
2022-12-19T07:25:39.857Z,29.90
2022-12-19T07:26:39.888Z,27.40
2022-12-19T07:27:39.843Z,27.40
2022-12-19T07:28:39.841Z,28.50
2022-12-19T07:29:39.832Z,28.60
2022-12-19T07:30:39.829Z,27.50
2022-12-19T07:31:39.831Z,26.90
2022-12-19T07:32:39.866Z,27.70
2022-12-19T07:33:39.945Z,26.20
2022-12-19T07:34:39.811Z,25.10
2022-12-19T07:35:39.783Z,24.60
2022-12-19T07:36:39.786Z,26.00
2022-12-19T07:37:39.781Z,24.50
2022-12-19T07:38:39.789Z,25.20
2022-12-19T07:39:39.756Z,25.10
2022-12-19T07:40:39.756Z,24.00
2022-12-19T07:41:39.750Z,24.50
2022-12-19T07:42:39.741Z,25.70
2022-12-19T07:43:39.759Z,23.80
2022-12-19T07:44:39.733Z,24.80
2022-12-19T07:45:39.766Z,23.80
2022-12-19T07:46:39.728Z,25.00
2022-12-19T07:47:39.705Z,25.20
2022-12-19T07:48:39.707Z,25.10
2022-12-19T07:49:39.797Z,24.60
2022-12-19T07:50:39.683Z,24.30
2022-12-19T07:51:39.681Z,25.30
2022-12-19T07:52:39.666Z,25.50
2022-12-19T07:53:39.673Z,25.60
2022-12-19T07:54:39.679Z,24.50
2022-12-19T07:55:39.680Z,25.50
2022-12-19T07:56:39.649Z,26.40
2022-12-19T07:57:39.640Z,29.90
2022-12-19T07:58:39.643Z,26.90
2022-12-19T07:59:39.702Z,25.70
2022-12-19T08:00:39.618Z,26.80
2022-12-19T08:01:39.717Z,25.50
2022-12-19T08:02:39.691Z,26.10
2022-12-19T08:03:39.616Z,26.10
2022-12-19T08:04:39.591Z,26.10
2022-12-19T08:05:39.667Z,25.20
2022-12-19T08:06:41.528Z,25.90
2022-12-19T08:07:39.569Z,24.90
2022-12-19T08:08:39.584Z,23.40
2022-12-19T08:09:39.564Z,24.60
2022-12-19T08:10:39.545Z,24.50
2022-12-19T08:11:39.565Z,25.60
2022-12-19T08:12:39.563Z,26.10
2022-12-19T08:13:44.833Z,25.90
2022-12-19T08:14:40.532Z,26.10
2022-12-19T08:15:39.539Z,25.80
2022-12-19T08:17:11.058Z,25.50
2022-12-19T08:17:40.565Z,25.50
2022-12-19T08:18:39.496Z,27.80
2022-12-19T08:19:39.558Z,27.20
2022-12-19T08:20:39.494Z,26.80
2022-12-19T08:21:39.556Z,25.30
2022-12-19T08:22:39.518Z,25.30
2022-12-19T08:23:39.479Z,27.30
2022-12-19T08:24:39.452Z,26.80
2022-12-19T08:25:39.502Z,27.10
2022-12-19T08:26:44.495Z,26.60
2022-12-19T08:27:39.452Z,25.90
2022-12-19T08:28:39.433Z,25.80
2022-12-19T08:29:39.443Z,25.50
2022-12-19T08:30:39.466Z,27.20
2022-12-19T08:31:39.474Z,15.50
2022-12-19T08:32:39.409Z,14.00
2022-12-19T08:33:39.436Z,15.20
2022-12-19T08:34:39.409Z,14.70
2022-12-19T08:35:39.420Z,15.50
2022-12-19T08:36:39.401Z,15.40
2022-12-19T08:37:39.450Z,20.30
2022-12-19T08:38:39.390Z,22.40
2022-12-19T08:39:39.392Z,22.80
2022-12-19T08:40:44.298Z,23.00
2022-12-19T08:41:40.414Z,23.00
2022-12-19T08:42:39.381Z,23.70
2022-12-19T08:43:39.339Z,23.50
2022-12-19T08:44:39.366Z,24.20
2022-12-19T08:45:39.395Z,24.60
2022-12-19T08:46:39.376Z,23.40
2022-12-19T08:47:39.361Z,23.70
2022-12-19T08:48:39.322Z,24.00
2022-12-19T08:49:39.331Z,24.50
2022-12-19T08:50:39.319Z,25.30
2022-12-19T08:51:39.358Z,24.30
2022-12-19T08:52:39.328Z,24.70
2022-12-19T08:53:39.383Z,24.30
2022-12-19T08:54:39.280Z,25.20
2022-12-19T08:55:39.293Z,24.70
2022-12-19T08:56:42.991Z,24.70
2022-12-19T08:57:39.313Z,25.30
2022-12-19T08:58:39.244Z,24.30
2022-12-19T08:59:39.254Z,25.20
2022-12-19T09:00:39.256Z,25.30
2022-12-19T09:01:39.382Z,25.80
2022-12-19T09:02:39.372Z,25.90
2022-12-19T09:03:51.307Z,25.90
2022-12-19T09:06:00.116Z,26.00
2022-12-19T09:06:05.343Z,25.90
2022-12-19T09:06:40.285Z,24.80
2022-12-19T09:07:39.205Z,27.20
2022-12-19T09:08:39.190Z,26.90
2022-12-19T09:09:39.263Z,27.60
2022-12-19T09:10:39.206Z,26.80
2022-12-19T09:11:47.379Z,29.10
2022-12-19T09:12:40.148Z,27.80
2022-12-19T09:13:39.159Z,27.70
2022-12-19T09:14:39.157Z,28.20
2022-12-19T09:15:39.149Z,27.40
2022-12-19T09:16:39.189Z,28.00
2022-12-19T09:17:39.145Z,27.90
2022-12-19T09:18:42.641Z,28.80
2022-12-19T09:19:40.125Z,27.60
2022-12-19T09:20:39.109Z,27.50
2022-12-19T09:21:39.140Z,26.90
2022-12-19T09:22:39.096Z,26.80
2022-12-19T09:23:39.096Z,28.30
2022-12-19T09:24:39.108Z,27.50
2022-12-19T09:25:39.148Z,26.90
2022-12-19T09:26:39.065Z,27.00
2022-12-19T09:28:17.537Z,28.50
2022-12-19T09:28:40.091Z,28.90
2022-12-19T09:29:39.075Z,28.80
2022-12-19T09:30:39.130Z,28.20
2022-12-19T09:31:39.072Z,28.70
2022-12-19T09:32:39.048Z,28.00
2022-12-19T09:33:43.320Z,27.80
2022-12-19T09:34:39.305Z,28.20
2022-12-19T09:35:39.025Z,27.70
2022-12-19T09:36:39.033Z,28.30
2022-12-19T09:37:39.008Z,27.70
2022-12-19T09:38:38.998Z,28.30
2022-12-19T09:39:38.986Z,28.80
2022-12-19T09:40:38.972Z,27.30
2022-12-19T09:41:39.091Z,27.40
2022-12-19T09:42:40.679Z,27.10
2022-12-19T09:43:41.384Z,27.00
2022-12-19T09:44:38.987Z,26.70
2022-12-19T09:45:38.953Z,27.20
2022-12-19T09:46:38.968Z,27.00
2022-12-19T09:47:38.960Z,27.50
2022-12-19T09:48:38.961Z,27.50
2022-12-19T09:49:41.942Z,27.80
2022-12-19T09:50:38.931Z,28.30
2022-12-19T09:51:38.911Z,27.60
2022-12-19T09:52:38.918Z,28.80
2022-12-19T09:53:38.901Z,27.70
2022-12-19T09:54:38.930Z,29.10
2022-12-19T09:55:38.889Z,27.80
2022-12-19T09:56:45.626Z,28.10
2022-12-19T09:57:39.971Z,28.60
2022-12-19T09:58:38.884Z,28.50
2022-12-19T09:59:42.790Z,27.20
2022-12-19T10:00:39.844Z,27.90
2022-12-19T10:01:38.951Z,28.30
2022-12-19T10:02:38.985Z,27.20
2022-12-19T10:03:40.536Z,26.60
2022-12-19T10:04:38.839Z,27.10
2022-12-19T10:06:41.137Z,27.60
2022-12-19T10:07:19.396Z,29.50
2022-12-19T10:08:01.839Z,28.40
2022-12-19T10:09:20.596Z,26.80
2022-12-19T10:12:16.946Z,27.70
2022-12-19T10:12:38.266Z,28.10
2022-12-19T10:12:43.072Z,27.40
2022-12-19T10:12:51.946Z,28.70
2022-12-19T10:13:39.834Z,27.80
2022-12-19T10:14:38.759Z,29.30
2022-12-19T10:15:38.822Z,29.60
2022-12-19T10:16:38.737Z,32.00
2022-12-19T10:17:38.797Z,30.30
2022-12-19T10:18:38.733Z,30.70
2022-12-19T10:19:38.730Z,31.30
2022-12-19T10:20:38.767Z,30.60
2022-12-19T10:22:08.106Z,30.40
2022-12-19T10:22:38.730Z,30.60
2022-12-19T10:23:38.692Z,28.00
2022-12-19T10:24:38.679Z,28.90
2022-12-19T10:25:38.679Z,28.60
2022-12-19T10:26:38.676Z,28.20
2022-12-19T10:27:38.668Z,29.10
2022-12-19T10:28:39.713Z,28.60
2022-12-19T10:29:38.741Z,29.30
2022-12-19T10:30:38.649Z,31.20
2022-12-19T10:31:38.718Z,31.30
2022-12-19T10:32:38.657Z,30.70
2022-12-19T10:33:38.631Z,30.30
2022-12-19T10:34:40.743Z,30.10
2022-12-19T10:35:38.614Z,29.10
2022-12-19T10:37:12.279Z,28.30
2022-12-19T10:37:45.625Z,29.50
2022-12-19T10:38:40.589Z,28.50
2022-12-19T10:39:38.609Z,28.10
2022-12-19T10:40:38.605Z,28.30
2022-12-19T10:41:44.112Z,27.80
2022-12-19T10:42:38.580Z,28.30
2022-12-19T10:43:43.989Z,26.80
2022-12-19T10:44:39.585Z,28.00
2022-12-19T10:45:38.624Z,29.00
2022-12-19T10:46:38.571Z,27.90
2022-12-19T10:47:38.552Z,28.80
2022-12-19T10:48:38.535Z,27.50
2022-12-19T10:49:38.558Z,27.50
2022-12-19T10:50:38.519Z,27.00
2022-12-19T10:51:38.531Z,28.00
2022-12-19T10:52:38.545Z,27.60
2022-12-19T10:53:38.490Z,28.10
2022-12-19T10:54:38.557Z,28.50
2022-12-19T10:55:38.512Z,28.30
2022-12-19T10:56:38.497Z,29.20
2022-12-19T10:57:38.492Z,32.00
2022-12-19T10:58:38.459Z,32.50
2022-12-19T10:59:38.523Z,32.80
2022-12-19T11:00:38.529Z,29.00
2022-12-19T11:01:38.761Z,28.70
2022-12-19T11:02:38.636Z,29.80
2022-12-19T11:03:38.454Z,30.20
2022-12-19T11:04:38.484Z,29.40
2022-12-19T11:05:38.560Z,30.90
2022-12-19T11:06:38.440Z,29.50
2022-12-19T11:07:38.431Z,28.20
2022-12-19T11:08:38.460Z,28.00
2022-12-19T11:09:38.428Z,29.50
2022-12-19T11:11:39.459Z,29.60
2022-12-19T11:14:32.044Z,29.90
2022-12-19T11:17:09.634Z,28.70
2022-12-19T11:19:50.045Z,28.40
2022-12-19T11:19:51.884Z,28.60
2022-12-19T11:20:27.355Z,27.40
2022-12-19T11:21:18.717Z,29.90
2022-12-19T11:27:03.866Z,29.60
2022-12-19T11:27:45.678Z,29.30
2022-12-19T11:29:15.952Z,29.10
2022-12-19T11:29:25.720Z,27.90
2022-12-19T11:29:40.930Z,30.80
2022-12-19T11:29:46.488Z,31.30
2022-12-19T11:29:54.826Z,30.00
2022-12-19T11:30:06.050Z,31.20
2022-12-19T11:30:38.648Z,31.70
2022-12-19T11:30:39.348Z,31.70
2022-12-19T11:30:43.544Z,32.40
2022-12-19T11:30:43.750Z,29.30
2022-12-19T11:32:42.228Z,26.90
2022-12-19T11:33:38.379Z,26.70
2022-12-19T11:34:38.216Z,28.00
2022-12-19T11:35:38.232Z,27.90
2022-12-19T11:36:38.228Z,28.80
2022-12-19T11:37:38.211Z,29.00
2022-12-19T11:38:38.193Z,33.40
2022-12-19T11:39:38.189Z,29.00
2022-12-19T11:40:43.018Z,28.80
2022-12-19T11:41:39.203Z,26.60
2022-12-19T11:42:38.196Z,26.70
2022-12-19T11:43:46.745Z,27.30
2022-12-19T11:44:39.155Z,28.00
2022-12-19T11:45:38.157Z,28.60
2022-12-19T11:46:38.151Z,29.20
2022-12-19T11:47:38.198Z,29.30
2022-12-19T11:48:38.177Z,28.30
2022-12-19T11:49:38.218Z,28.70
2022-12-19T11:50:38.130Z,29.60
2022-12-19T11:51:38.126Z,29.80
2022-12-19T11:53:03.323Z,29.30
2022-12-19T11:53:39.128Z,29.20
2022-12-19T11:54:38.096Z,28.00
2022-12-19T11:55:38.110Z,28.00
2022-12-19T11:56:38.100Z,27.70
2022-12-19T11:57:38.104Z,28.20
2022-12-19T11:58:38.078Z,27.50
2022-12-19T11:59:38.113Z,27.40
2022-12-19T12:00:38.085Z,26.40
2022-12-19T12:01:38.103Z,26.60
2022-12-19T12:02:38.052Z,27.10
2022-12-19T12:03:38.138Z,27.60
2022-12-19T12:04:38.099Z,32.30
2022-12-19T12:05:38.137Z,34.10
2022-12-19T12:06:39.912Z,29.50
2022-12-19T12:08:45.259Z,28.00
2022-12-19T12:09:41.835Z,27.30
2022-12-19T12:11:58.409Z,23.90
2022-12-19T12:13:29.472Z,28.30
2022-12-19T12:15:08.547Z,26.30
2022-12-19T12:20:33.131Z,26.40
2022-12-19T12:22:42.874Z,26.40
2022-12-19T12:24:42.968Z,27.50
2022-12-19T12:25:25.855Z,29.50
2022-12-19T12:29:14.465Z,29.10
2022-12-19T12:31:01.480Z,26.70
2022-12-19T12:31:07.885Z,27.90
2022-12-19T12:31:07.991Z,23.20
2022-12-19T12:31:08.169Z,23.90
2022-12-19T12:31:12.796Z,23.70
2022-12-19T12:31:15.792Z,25.20
2022-12-19T12:31:30.805Z,23.80
2022-12-19T12:31:39.475Z,21.60
2022-12-19T12:31:39.616Z,23.10
2022-12-19T12:31:41.755Z,23.10
2022-12-19T12:31:46.811Z,22.90
2022-12-19T12:31:47.317Z,23.30
2022-12-19T12:31:48.871Z,22.00
2022-12-19T12:31:53.907Z,23.60
2022-12-19T12:35:46.744Z,24.10
2022-12-19T12:35:47.066Z,23.50
2022-12-19T12:35:54.549Z,23.40
2022-12-19T12:38:19.055Z,25.30
2022-12-19T12:38:39.300Z,25.40
2022-12-19T12:39:37.819Z,25.60
2022-12-19T12:40:37.805Z,27.30
2022-12-19T12:41:37.795Z,26.60
2022-12-19T12:42:37.791Z,25.20
2022-12-19T12:43:37.813Z,25.20
2022-12-19T12:44:44.798Z,23.20
2022-12-19T12:45:37.826Z,23.80
2022-12-19T12:46:37.809Z,23.50
2022-12-19T12:47:37.781Z,23.80
2022-12-19T12:48:37.772Z,23.80
2022-12-19T12:49:37.744Z,24.10
2022-12-19T12:50:37.739Z,23.20
2022-12-19T12:51:37.755Z,22.80
2022-12-19T12:52:37.771Z,23.70
2022-12-19T12:53:37.723Z,24.20
2022-12-19T12:54:37.727Z,22.70
2022-12-19T12:55:37.720Z,23.10
2022-12-19T12:56:37.754Z,23.20
2022-12-19T12:57:37.707Z,22.60
2022-12-19T12:58:37.716Z,23.20